Time;durP1;ratioP1;P1;durP2;ratioP2;P2;SDS_P1;SDS_P2;PMS_P1;PMS_P2;Temp;Humidity;BMP_temperature;BMP_pressure;BME280_temperature;BME280_humidity;BME280_pressure;Samples;Min_cycle;Max_cycle;Signal;HPM_P1;HPM_P2
2021/01/15 00:01:21;;;;;;;4.72;2.72;;;;;;;1.88;40.88;101738.19;4989954;28;20449;-74
2021/01/15 00:03:50;;;;;;;3.75;2.45;;;;;;;1.86;40.76;101735.53;4991651;28;20039;-75
2021/01/15 00:06:23;;;;;;;5.28;3.00;;;;;;;1.87;40.15;101745.41;4993720;28;20088;-74
2021/01/15 00:08:51;;;;;;;;;;;;;;;1.63;40.67;101741.75;4991353;28;20049;-73
2021/01/15 00:11:21;;;;;;;4.75;2.50;;;;;;;1.82;40.75;101751.88;4990371;28;20101;-75
2021/01/15 00:13:49;;;;;;;4.35;2.30;;;;;;;1.86;40.83;101750.84;4989923;28;20413;-74
2021/01/15 00:16:18;;;;;;;3.95;2.35;;;;;;;1.88;40.83;101759.78;4990187;28;20049;-74
2021/01/15 00:18:46;;;;;;;4.63;2.60;;;;;;;1.87;40.71;101758.00;4989991;28;20367;-73
2021/01/15 00:21:22;;;;;;;3.83;2.38;;;;;;;1.90;40.59;101758.75;4993196;28;20046;-74
2021/01/15 00:23:51;;;;;;;4.90;2.60;;;;;;;1.89;40.92;101764.22;4986488;28;20035;-75
2021/01/15 00:26:19;;;;;;;5.03;2.15;;;;;;;1.89;41.06;101773.19;4994413;28;20046;-74
2021/01/15 00:28:46;;;;;;;4.50;2.42;;;;;;;1.91;41.04;101763.22;4992947;28;20050;-75
2021/01/15 00:31:14;;;;;;;3.60;2.10;;;;;;;1.93;40.84;101763.16;4996095;28;20046;-76
2021/01/15 00:33:41;;;;;;;4.40;2.60;;;;;;;1.96;41.23;101768.47;4998844;28;20053;-74
2021/01/15 00:36:10;;;;;;;4.90;2.75;;;;;;;1.97;40.96;101770.22;4988900;28;20049;-74
2021/01/15 00:38:39;;;;;;;4.57;2.53;;;;;;;1.98;40.93;101771.97;4988915;28;20047;-73
2021/01/15 00:41:09;;;;;;;5.63;2.60;;;;;;;1.99;41.07;101781.81;4988682;28;20117;-75
2021/01/15 00:43:37;;;;;;;4.15;2.38;;;;;;;2.01;41.16;101783.53;4986577;28;20125;-72
2021/01/15 00:46:07;;;;;;;5.05;2.60;;;;;;;2.02;41.03;101776.34;4988178;28;20045;-73
2021/01/15 00:48:35;;;;;;;4.53;2.85;;;;;;;2.03;41.03;101780.78;4992181;28;20054;-74
2021/01/15 00:51:08;;;;;;;4.90;2.83;;;;;;;2.05;40.66;101771.69;4984337;28;20034;-74
2021/01/15 00:53:36;;;;;;;5.35;2.90;;;;;;;2.04;40.99;101774.47;4992754;28;20050;-74
2021/01/15 00:56:05;;;;;;;4.28;2.80;;;;;;;2.06;41.02;101775.25;4993115;28;20062;-74
2021/01/15 00:58:32;;;;;;;5.22;2.80;;;;;;;2.05;40.76;101774.38;4990169;28;20061;-75
2021/01/15 01:01:00;;;;;;;5.43;3.13;;;;;;;2.05;40.66;101776.22;4997798;28;20046;-75
2021/01/15 01:03:43;;;;;;;5.00;2.77;;;;;;;2.02;40.86;101782.63;5008646;28;20141;-75
2021/01/15 01:06:11;;;;;;;5.50;3.08;;;;;;;2.05;40.76;101779.78;4992879;28;20038;-74
2021/01/15 01:08:39;;;;;;;4.45;2.95;;;;;;;2.05;40.71;101781.63;4992061;28;20494;-75
2021/01/15 01:11:12;;;;;;;5.32;2.97;;;;;;;2.07;40.48;101783.31;4983701;28;20500;-74
2021/01/15 01:13:40;;;;;;;3.83;2.60;;;;;;;2.01;41.02;101778.16;4989877;28;20047;-75
2021/01/15 01:16:07;;;;;;;4.63;2.47;;;;;;;2.02;40.72;101785.31;4987949;28;20101;-74
2021/01/15 01:18:35;;;;;;;4.75;2.45;;;;;;;2.03;40.70;101786.19;4991785;28;20047;-75
2021/01/15 01:21:03;;;;;;;4.40;2.65;;;;;;;2.03;40.87;101786.19;4992340;28;20041;-74
2021/01/15 01:23:30;;;;;;;4.68;2.50;;;;;;;2.02;40.62;101792.53;4992840;28;20029;-74
2021/01/15 01:25:58;;;;;;;4.18;2.78;;;;;;;2.02;40.63;101795.22;4992916;28;20478;-74
2021/01/15 01:28:26;;;;;;;5.00;2.92;;;;;;;2.01;40.62;101802.44;4991857;28;20090;-74
2021/01/15 01:30:53;;;;;;;4.93;2.80;;;;;;;2.00;40.77;101802.47;4995894;28;20030;-74
2021/01/15 01:33:21;;;;;;;5.70;2.92;;;;;;;2.00;40.63;101805.19;4984849;28;20363;-74
2021/01/15 01:35:50;;;;;;;5.15;3.17;;;;;;;2.00;40.87;101807.88;4985320;28;20365;-74
2021/01/15 01:38:17;;;;;;;5.03;2.95;;;;;;;2.00;40.92;101824.06;5000051;28;20046;-74
2021/01/15 01:40:45;;;;;;;4.80;2.60;;;;;;;1.98;40.96;101825.94;4991429;28;20045;-74
2021/01/15 01:43:13;;;;;;;4.07;2.50;;;;;;;1.98;40.77;101825.94;4989196;28;20044;-74
2021/01/15 01:45:41;;;;;;;4.65;2.88;;;;;;;1.98;40.80;101823.22;4990245;28;20437;-75
2021/01/15 01:48:09;;;;;;;4.93;2.78;;;;;;;1.97;40.83;101835.00;4991887;28;20050;-75
2021/01/15 01:50:41;;;;;;;4.32;2.70;;;;;;;1.95;40.91;101826.94;4983965;28;20043;-75
2021/01/15 01:53:17;;;;;;;5.35;3.05;;;;;;;1.94;40.70;101835.97;4990625;28;20069;-74
2021/01/15 01:55:46;;;;;;;4.45;2.80;;;;;;;1.93;40.85;101836.03;4992043;28;20646;-74
2021/01/15 01:58:17;;;;;;;5.60;3.22;;;;;;;1.94;40.71;101841.38;4997340;28;20042;-75
2021/01/15 02:00:48;;;;;;;5.53;3.08;;;;;;;1.92;40.49;101837.84;4982590;28;20157;-74
2021/01/15 02:03:16;;;;;;;4.70;2.70;;;;;;;1.91;40.82;101846.84;4984191;28;20057;-74
2021/01/15 02:05:43;;;;;;;4.75;2.70;;;;;;;1.89;41.05;101846.03;4992425;28;20046;-74
2021/01/15 02:08:11;;;;;;;5.55;2.67;;;;;;;1.89;41.01;101850.56;4988953;28;20113;-75
2021/01/15 02:10:46;;;;;;;4.93;2.80;;;;;;;1.89;40.83;101854.13;4985486;28;20042;-75
2021/01/15 02:13:31;;;;;;;5.38;3.13;;;;;;;1.89;40.64;101859.50;4991549;28;20101;-74
2021/01/15 02:16:03;;;;;;;5.00;3.00;;;;;;;1.88;40.82;101862.28;4991845;28;20061;-74
2021/01/15 02:18:35;;;;;;;5.55;2.88;;;;;;;1.87;40.68;101865.91;4990830;28;20043;-74
2021/01/15 02:21:32;;;;;;;7.00;3.00;;;;;;;1.88;40.63;101867.69;4991752;28;20043;-75
2021/01/15 02:24:10;;;;;;;5.97;3.42;;;;;;;1.86;41.06;101859.63;4998663;28;20039;-74
2021/01/15 02:27:09;;;;;;;6.13;3.40;;;;;;;1.86;40.93;101866.84;4988957;28;20402;-75
2021/01/15 02:29:46;;;;;;;6.85;3.72;;;;;;;1.84;41.34;101872.28;4983372;28;20054;-74
2021/01/15 02:32:38;;;;;;;6.55;3.65;;;;;;;1.85;41.29;101873.19;4988168;28;20077;-74
2021/01/15 02:35:31;;;;;;;7.22;3.92;;;;;;;1.83;41.26;101875.03;4990801;28;20050;-74
2021/01/15 02:38:13;;;;;;;7.23;4.23;;;;;;;1.82;41.38;101873.25;4988677;28;20034;-74
2021/01/15 02:40:49;;;;;;;7.50;3.85;;;;;;;1.81;41.62;101877.78;4982588;28;20457;-74
2021/01/15 02:43:18;;;;;;;7.43;4.35;;;;;;;1.82;41.61;101873.25;4985102;28;20064;-74
2021/01/15 02:45:46;;;;;;;7.47;4.72;;;;;;;1.84;41.67;101887.59;4984099;28;20053;-74
2021/01/15 02:48:16;;;;;;;8.77;4.40;;;;;;;1.86;41.68;101880.34;4987534;28;20104;-74
2021/01/15 02:50:47;;;;;;;8.57;4.50;;;;;;;1.85;41.78;101883.97;4987291;28;20075;-74
2021/01/15 02:53:15;;;;;;;8.52;5.05;;;;;;;1.85;41.89;101886.66;5006384;28;20038;-74
2021/01/15 02:55:44;;;;;;;7.97;4.70;;;;;;;1.86;41.92;101891.13;4994912;28;20034;-74
2021/01/15 02:58:12;;;;;;;9.25;5.10;;;;;;;1.87;41.69;101883.00;4994940;28;20062;-74
2021/01/15 03:00:40;;;;;;;9.05;5.30;;;;;;;1.87;41.99;101892.91;4989644;28;20046;-74
2021/01/15 03:03:21;;;;;;;9.75;5.40;;;;;;;1.88;41.94;101890.16;4993230;28;20041;-74
2021/01/15 03:05:54;;;;;;;9.35;5.35;;;;;;;1.87;42.14;101887.50;4993534;28;20046;-74
2021/01/15 03:08:23;;;;;;;6.75;4.20;;;;;;;1.86;42.10;101891.13;4994099;28;20042;-74
2021/01/15 03:10:52;;;;;;;9.23;5.47;;;;;;;1.86;41.99;101893.84;4997840;28;20414;-74
2021/01/15 03:13:19;;;;;;;8.77;5.55;;;;;;;1.86;42.19;101894.72;4993630;28;20147;-74
2021/01/15 03:15:48;;;;;;;10.57;6.38;;;;;;;1.84;42.13;101899.28;4994311;28;20058;-74
2021/01/15 03:18:17;;;;;;;8.98;5.53;;;;;;;1.84;41.78;101907.38;4994629;28;20038;-74
2021/01/15 03:20:45;;;;;;;8.77;5.20;;;;;;;1.83;41.91;101900.19;4993087;28;20394;-74
2021/01/15 03:23:12;;;;;;;8.68;5.38;;;;;;;1.82;42.07;101906.53;4993146;28;20039;-74
2021/01/15 03:25:39;;;;;;;8.77;5.28;;;;;;;1.80;42.25;101903.03;4989326;28;20058;-74
2021/01/15 03:28:06;;;;;;;10.73;5.80;;;;;;;1.79;42.27;101906.66;4994952;28;20073;-74
2021/01/15 03:30:34;;;;;;;10.07;6.00;;;;;;;1.78;42.02;101910.28;4991437;28;20702;-75
2021/01/15 03:33:03;;;;;;;11.77;5.88;;;;;;;1.79;42.08;101923.72;4985757;28;20066;-75
2021/01/15 03:35:33;;;;;;;9.75;5.50;;;;;;;1.79;42.19;101923.72;4987095;28;20076;-74
2021/01/15 03:38:02;;;;;;;9.80;5.45;;;;;;;1.78;42.23;101924.66;4993264;28;20049;-74
2021/01/15 03:40:32;;;;;;;10.30;5.85;;;;;;;1.76;42.32;101926.50;4985848;28;20054;-74
2021/01/15 03:43:00;;;;;;;9.35;5.25;;;;;;;1.76;42.50;101928.31;4993614;28;20042;-74
2021/01/15 03:45:28;;;;;;;9.48;5.50;;;;;;;1.76;42.21;101939.09;4993268;28;20034;-74
2021/01/15 03:47:56;;;;;;;9.68;5.88;;;;;;;1.74;42.29;101938.25;4993494;28;20046;-74
2021/01/15 03:50:23;;;;;;;8.88;5.30;;;;;;;1.75;42.22;101940.91;4993090;28;20560;-74
2021/01/15 03:52:51;;;;;;;9.00;5.63;;;;;;;1.74;42.42;101944.53;4993388;28;20049;-74
2021/01/15 03:55:19;;;;;;;9.05;5.55;;;;;;;1.75;41.92;101945.44;4993075;28;20050;-74
2021/01/15 03:57:47;;;;;;;9.50;5.82;;;;;;;1.73;42.16;101955.38;4992601;28;20068;-74
2021/01/15 04:00:15;;;;;;;9.10;5.18;;;;;;;1.74;42.39;101965.25;4987597;28;20050;-74
2021/01/15 04:02:43;;;;;;;9.88;5.80;;;;;;;1.73;42.17;101958.97;4993717;28;20038;-74
2021/01/15 04:05:11;;;;;;;9.95;5.90;;;;;;;1.73;42.44;101964.34;4992402;28;20077;-75
2021/01/15 04:07:39;;;;;;;9.73;5.72;;;;;;;1.73;42.15;101969.75;4992460;28;20046;-74
2021/01/15 04:10:09;;;;;;;10.32;6.25;;;;;;;1.74;42.36;101970.63;4992291;28;20051;-75
2021/01/15 04:12:56;;;;;;;12.23;6.55;;;;;;;1.71;42.15;101974.34;4990402;28;20042;-74
2021/01/15 04:15:38;;;;;;;10.85;6.00;;;;;;;1.71;42.00;101973.44;5001087;28;20030;-74
2021/01/15 04:18:25;;;;;;;11.68;5.93;;;;;;;1.71;42.07;101974.34;4991314;28;20057;-74
2021/01/15 04:21:08;;;;;;;10.77;5.80;;;;;;;1.69;42.37;101981.59;4992161;28;20057;-74
2021/01/15 04:23:55;;;;;;;9.85;5.70;;;;;;;1.71;42.52;101977.03;5000148;28;20288;-74
2021/01/15 04:26:43;;;;;;;9.43;5.55;;;;;;;1.73;42.50;101980.53;4982221;28;20050;-74
2021/01/15 04:29:30;;;;;;;9.65;5.22;;;;;;;1.73;42.15;101988.63;4992613;28;20050;-74
2021/01/15 04:32:17;;;;;;;9.90;5.70;;;;;;;1.74;42.21;101985.00;4989680;28;20100;-74
2021/01/15 04:35:05;;;;;;;8.88;5.57;;;;;;;1.74;42.29;101989.53;4990369;28;20046;-74
2021/01/15 04:37:52;;;;;;;7.53;5.10;;;;;;;1.77;42.19;101989.44;4977359;28;20042;-74
2021/01/15 04:40:39;;;;;;;8.35;4.90;;;;;;;1.79;42.22;102001.06;4992535;28;20186;-74
2021/01/15 04:43:28;;;;;;;6.78;4.63;;;;;;;1.82;42.38;102000.06;4992091;28;20069;-74
2021/01/15 04:46:17;;;;;;;8.65;5.30;;;;;;;1.82;42.32;101998.25;4990213;28;20046;-74
2021/01/15 04:49:08;;;;;;;8.98;4.80;;;;;;;1.85;42.22;101999.97;4989633;28;20088;-74
2021/01/15 04:52:00;;;;;;;10.20;5.75;;;;;;;1.87;42.44;102003.53;4990235;28;20049;-74
2021/01/15 04:54:52;;;;;;;10.43;5.90;;;;;;;1.88;42.26;102002.59;4993327;28;20061;-74
2021/01/15 04:57:40;;;;;;;10.75;6.20;;;;;;;1.88;42.16;102008.00;4992659;28;20414;-74
2021/01/15 05:00:30;;;;;;;11.57;6.75;;;;;;;1.87;42.19;101998.13;4990032;28;20246;-74
2021/01/15 05:03:01;;;;;;;11.82;6.38;;;;;;;1.91;42.34;102007.88;4990601;28;20449;-74
2021/01/15 05:05:43;;;;;;;11.77;6.90;;;;;;;1.91;42.30;102016.84;4991516;28;20365;-74
2021/01/15 05:08:13;;;;;;;11.95;6.85;;;;;;;1.90;42.53;102011.50;4987652;28;20050;-74
2021/01/15 05:10:47;;;;;;;10.68;6.05;;;;;;;1.92;42.50;102018.63;4989631;28;20061;-74
2021/01/15 05:13:36;;;;;;;12.25;7.32;;;;;;;1.93;42.79;102028.47;4991534;28;20494;-74
2021/01/15 05:16:08;;;;;;;13.52;7.20;;;;;;;1.95;42.54;102021.22;4991667;28;20039;-74
2021/01/15 05:18:46;;;;;;;12.85;6.90;;;;;;;1.95;42.47;102025.75;4992045;28;20409;-74
2021/01/15 05:21:34;;;;;;;11.90;6.22;;;;;;;1.96;42.95;102028.41;4989985;28;20052;-74
2021/01/15 05:24:21;;;;;;;11.63;7.20;;;;;;;1.96;42.61;102041.00;4987527;28;20050;-74
2021/01/15 05:30:21;;;;;;;13.68;6.55;;;;;;;2.00;43.31;102039.97;4991238;28;20381;-75
2021/01/15 05:33:14;;;;;;;11.13;6.60;;;;;;;2.02;43.45;102046.19;5002113;28;20043;-74
2021/01/15 05:36:01;;;;;;;13.23;8.07;;;;;;;1.98;43.38;102044.50;4987235;28;20074;-74
2021/01/15 05:39:06;;;;;;;13.80;7.68;;;;;;;2.02;43.53;102055.19;5002177;28;20493;-74
2021/01/15 05:41:59;;;;;;;15.40;8.30;;;;;;;2.02;43.54;102052.47;4981194;28;20047;-74
2021/01/15 05:44:47;;;;;;;13.45;8.13;;;;;;;2.00;43.24;102051.63;4987642;28;20070;-74
2021/01/15 05:47:42;;;;;;;13.75;7.80;;;;;;;2.05;43.79;102057.75;4981627;28;20049;-74
2021/01/15 05:50:40;;;;;;;14.23;7.88;;;;;;;2.04;43.72;102063.22;4987406;28;20050;-73
2021/01/15 05:53:40;;;;;;;14.70;7.95;;;;;;;2.05;43.82;102068.56;4982592;28;20057;-73
2021/01/15 05:56:39;;;;;;;12.32;7.75;;;;;;;2.04;44.00;102071.34;4990525;28;20143;-73
2021/01/15 05:59:27;;;;;;;15.73;9.15;;;;;;;2.02;43.71;102074.06;4992924;28;20048;-73
2021/01/15 06:02:17;;;;;;;15.73;8.45;;;;;;;2.03;43.57;102081.25;4994254;28;20486;-74
2021/01/15 06:05:05;;;;;;;14.20;8.63;;;;;;;2.03;43.60;102077.66;4996693;28;20044;-73
2021/01/15 06:07:55;;;;;;;13.63;7.95;;;;;;;2.06;43.54;102077.53;4990442;28;20050;-74
2021/01/15 06:10:44;;;;;;;13.15;8.32;;;;;;;2.05;43.46;102075.81;4992485;28;20043;-73
2021/01/15 06:13:36;;;;;;;14.32;7.78;;;;;;;2.08;43.70;102081.09;4990002;28;20066;-74
2021/01/15 06:16:23;;;;;;;13.07;7.70;;;;;;;2.07;43.57;102072.09;4990851;28;20054;-74
2021/01/15 06:19:10;;;;;;;13.63;6.43;;;;;;;2.09;43.72;102083.75;4982881;28;20046;-74
2021/01/15 06:21:53;;;;;;;14.65;7.57;;;;;;;2.14;43.94;102079.06;4984352;28;20031;-74
2021/01/15 06:24:23;;;;;;;12.38;7.10;;;;;;;2.15;43.70;102080.84;5000477;28;20049;-73
2021/01/15 06:27:06;;;;;;;15.45;9.20;;;;;;;2.18;44.37;102086.16;4990873;28;20073;-73
2021/01/15 06:29:44;;;;;;;14.13;7.45;;;;;;;2.21;43.86;102090.56;4991245;28;20057;-73
2021/01/15 06:32:32;;;;;;;13.50;6.93;;;;;;;2.20;43.64;102091.50;4993342;28;20054;-74
2021/01/15 06:35:06;;;;;;;15.80;9.55;;;;;;;2.23;43.93;102094.09;4975575;28;20108;-73
2021/01/15 06:38:01;;;;;;;14.55;8.25;;;;;;;2.24;43.86;102101.25;4989605;28;20051;-74
2021/01/15 06:40:51;;;;;;;18.45;8.93;;;;;;;2.22;43.81;102097.72;4992806;28;20490;-73
2021/01/15 06:43:38;;;;;;;18.08;9.70;;;;;;;2.21;43.81;102106.78;5000678;28;20058;-74
2021/01/15 06:46:34;;;;;;;17.05;9.20;;;;;;;2.23;44.05;102115.69;4994564;28;20054;-74
2021/01/15 06:49:30;;;;;;;17.48;9.02;;;;;;;2.22;44.24;102115.75;4994698;28;20062;-74
2021/01/15 06:52:26;;;;;;;16.17;9.43;;;;;;;2.22;44.04;102111.22;4994552;28;20133;-74
2021/01/15 06:55:19;;;;;;;17.02;8.38;;;;;;;2.18;44.08;102120.34;4990908;28;20445;-73
2021/01/15 06:58:17;;;;;;;14.85;8.38;;;;;;;2.20;43.95;102117.63;4987148;28;20367;-73
2021/01/15 07:01:16;;;;;;;16.60;9.20;;;;;;;2.20;44.27;102123.03;4994489;28;21565;-75
2021/01/15 07:04:16;;;;;;;15.27;8.60;;;;;;;2.20;44.33;102134.69;4990171;28;20038;-74
2021/01/15 07:07:09;;;;;;;16.58;7.85;;;;;;;2.21;45.39;102138.28;4989547;28;20049;-71
2021/01/15 07:10:00;;;;;;;15.25;8.07;;;;;;;2.20;44.98;102142.81;4988437;28;20081;-70
2021/01/15 07:12:56;;;;;;;14.23;7.90;;;;;;;2.24;45.77;102146.25;4980701;28;20092;-70
2021/01/15 07:15:53;;;;;;;16.40;8.43;;;;;;;2.28;45.25;102153.34;4991516;28;20060;-75
2021/01/15 07:18:50;;;;;;;16.05;7.85;;;;;;;2.35;44.93;102150.41;4988742;28;20140;-74
2021/01/15 07:21:38;;;;;;;15.02;8.15;;;;;;;2.40;45.01;102152.94;4993791;28;20062;-73
2021/01/15 07:24:28;;;;;;;14.77;8.40;;;;;;;2.48;44.84;102157.19;4994197;28;20042;-73
2021/01/15 07:27:15;;;;;;;15.02;8.02;;;;;;;2.49;44.77;102156.25;4993060;28;20053;-73
2021/01/15 07:29:48;;;;;;;14.80;8.85;;;;;;;2.55;44.33;102158.75;4991917;28;20486;-72
2021/01/15 07:32:20;;;;;;;15.27;8.02;;;;;;;2.59;44.52;102155.94;4988813;28;20049;-71
2021/01/15 07:35:15;;;;;;;17.77;9.52;;;;;;;2.60;44.25;102164.03;4988888;28;20162;-72
2021/01/15 07:38:10;;;;;;;16.73;8.30;;;;;;;2.62;44.11;102159.47;4990930;28;20046;-71
2021/01/15 07:40:57;;;;;;;17.33;9.18;;;;;;;2.59;44.27;102174.88;4993526;28;20643;-73
2021/01/15 07:43:44;;;;;;;16.38;9.32;;;;;;;2.61;44.15;102170.31;4985468;28;20096;-73
2021/01/15 07:46:46;;;;;;;18.27;10.50;;;;;;;2.63;44.30;102171.16;4993058;28;20065;-73
2021/01/15 07:49:49;;;;;;;19.47;10.10;;;;;;;2.60;44.00;102174.81;4992391;28;20054;-73
2021/01/15 07:53:02;;;;;;;17.90;9.98;;;;;;;2.58;43.89;102187.47;4992541;28;20049;-74
2021/01/15 07:55:51;;;;;;;14.02;8.23;;;;;;;2.56;43.70;102181.25;4989519;28;20038;-72
2021/01/15 07:58:46;;;;;;;16.92;9.40;;;;;;;2.59;44.10;102197.38;4989496;28;20558;-73
2021/01/15 08:01:33;;;;;;;16.77;9.10;;;;;;;2.57;44.17;102196.53;4990382;28;20042;-73
2021/01/15 08:04:20;;;;;;;16.15;8.75;;;;;;;2.54;43.84;102202.94;4996327;28;20066;-73
2021/01/15 08:07:14;;;;;;;17.50;9.10;;;;;;;2.57;44.20;102204.63;4984038;28;20128;-72
2021/01/15 08:10:01;;;;;;;15.07;8.93;;;;;;;2.53;44.21;102206.56;4999059;28;20050;-72
2021/01/15 08:12:49;;;;;;;20.67;10.55;;;;;;;2.53;43.90;102209.25;4987005;28;20505;-71
2021/01/15 08:15:36;;;;;;;18.02;9.60;;;;;;;2.53;44.07;102217.34;4992806;28;20090;-72
2021/01/15 08:18:24;;;;;;;16.55;9.73;;;;;;;2.53;44.14;102213.78;4992346;28;20061;-73
2021/01/15 08:21:12;;;;;;;15.57;9.27;;;;;;;2.51;43.78;102221.03;4992265;28;20042;-73
2021/01/15 08:24:03;;;;;;;17.83;8.82;;;;;;;2.51;44.01;102232.72;4991396;28;20046;-73
2021/01/15 08:26:51;;;;;;;16.02;8.68;;;;;;;2.48;43.98;102234.63;4991746;28;20058;-73
2021/01/15 08:29:38;;;;;;;15.30;7.97;;;;;;;2.47;44.01;102238.25;4988152;28;20401;-71
2021/01/15 08:32:25;;;;;;;20.63;10.88;;;;;;;2.45;44.10;102238.31;4988373;28;20165;-72
2021/01/15 08:35:21;;;;;;;19.48;9.75;;;;;;;2.47;44.16;102240.94;4986096;28;20161;-72
2021/01/15 08:38:28;;;;;;;20.40;11.20;;;;;;;2.45;43.99;102243.72;4991358;28;20101;-73
2021/01/15 08:41:28;;;;;;;16.83;9.45;;;;;;;2.43;44.27;102253.69;4989941;28;20050;-73
2021/01/15 08:44:16;;;;;;;18.65;9.57;;;;;;;2.43;44.14;102253.69;4989289;28;20065;-73
2021/01/15 08:47:04;;;;;;;18.00;9.05;;;;;;;2.43;43.96;102263.59;4989521;28;20069;-73
2021/01/15 08:49:53;;;;;;;21.58;11.07;;;;;;;2.37;43.95;102264.69;4989804;28;20057;-73
2021/01/15 08:52:43;;;;;;;22.60;12.50;;;;;;;2.35;44.38;102265.63;4991710;28;20073;-73
2021/01/15 08:55:30;;;;;;;23.85;11.48;;;;;;;2.35;44.06;102271.03;4989825;28;20053;-73
2021/01/15 08:58:18;;;;;;;21.17;10.70;;;;;;;2.34;44.16;102272.84;4986919;28;20046;-73
2021/01/15 09:00:46;;;;;;;21.10;10.93;;;;;;;2.32;44.04;102277.41;4984919;28;20077;-73
2021/01/15 09:03:17;;;;;;;22.38;11.23;;;;;;;2.30;44.25;102284.66;4990433;28;20038;-74
2021/01/15 09:06:06;;;;;;;21.35;11.00;;;;;;;2.28;44.21;102288.34;4996007;28;20067;-74
2021/01/15 09:08:56;;;;;;;18.25;9.18;;;;;;;2.28;44.35;102294.66;4988473;28;20137;-75
2021/01/15 09:11:44;;;;;;;19.30;9.30;;;;;;;2.28;44.14;102302.75;4990726;28;20058;-76
2021/01/15 09:14:35;;;;;;;16.13;8.43;;;;;;;2.29;44.42;102301.81;4984007;28;20050;-73
2021/01/15 09:17:26;;;;;;;18.88;8.85;;;;;;;2.33;44.75;102311.59;4989940;28;20050;-74
2021/01/15 09:20:15;;;;;;;19.25;10.68;;;;;;;2.31;44.86;102317.94;4981043;28;20109;-73
2021/01/15 09:23:02;;;;;;;20.13;10.63;;;;;;;2.32;44.72;102319.72;4987221;28;20524;-72
2021/01/15 09:25:49;;;;;;;18.80;9.82;;;;;;;2.32;44.51;102320.63;4988513;28;20534;-72
2021/01/15 09:28:37;;;;;;;16.42;9.63;;;;;;;2.33;44.34;102332.31;4996212;28;20054;-72
2021/01/15 09:31:25;;;;;;;19.80;10.40;;;;;;;2.30;44.58;102338.66;4989130;28;20076;-73
2021/01/15 09:34:13;;;;;;;17.80;10.15;;;;;;;2.29;44.62;102327.94;5001733;28;20053;-72
2021/01/15 09:37:01;;;;;;;20.95;11.15;;;;;;;2.27;44.68;102341.47;4987381;28;20363;-72
2021/01/15 09:39:48;;;;;;;18.45;10.25;;;;;;;2.24;44.64;102352.34;4991372;28;20050;-73
2021/01/15 09:42:36;;;;;;;18.48;8.88;;;;;;;2.27;44.77;102345.97;4991641;28;20161;-72
2021/01/15 09:45:23;;;;;;;20.73;10.30;;;;;;;2.25;44.35;102353.22;4991494;28;20410;-73
2021/01/15 09:48:12;;;;;;;21.42;10.98;;;;;;;2.24;44.64;102363.16;4987971;28;20042;-72
2021/01/15 09:51:00;;;;;;;18.70;9.65;;;;;;;2.24;44.76;102368.53;4987603;28;20081;-72
2021/01/15 09:53:48;;;;;;;15.95;8.00;;;;;;;2.26;44.54;102357.72;4991559;28;20046;-73
2021/01/15 09:56:40;;;;;;;20.73;10.82;;;;;;;2.24;45.00;102370.34;4990630;28;20054;-72
2021/01/15 09:59:27;;;;;;;17.52;9.25;;;;;;;2.24;44.65;102376.66;4990293;28;20050;-72
2021/01/15 10:02:15;;;;;;;16.35;8.68;;;;;;;2.28;44.91;102374.75;4990267;28;20048;-71
2021/01/15 10:05:03;;;;;;;19.10;10.05;;;;;;;2.31;44.97;102386.34;4989213;28;20066;-72
2021/01/15 10:07:50;;;;;;;19.02;10.95;;;;;;;2.31;44.82;102385.44;4984721;28;20050;-72
2021/01/15 10:10:37;;;;;;;16.88;8.93;;;;;;;2.34;45.23;102385.38;4986447;28;20061;-70
2021/01/15 10:13:11;;;;;;;21.20;10.20;;;;;;;2.37;44.83;102382.59;4991026;28;20444;-70
2021/01/15 10:15:45;;;;;;;17.00;9.73;;;;;;;2.40;44.96;102382.50;4989813;28;20034;-73
2021/01/15 10:18:18;;;;;;;;;;;;;;;2.20;45.44;102387.59;4988486;28;20129;-73
2021/01/15 10:21:06;;;;;;;17.23;9.45;;;;;;;2.38;44.90;102378.97;4988797;28;19976;-73
2021/01/15 10:23:54;;;;;;;17.52;9.50;;;;;;;2.44;44.67;102395.00;4991009;28;20042;-70
2021/01/15 10:26:42;;;;;;;17.23;8.55;;;;;;;2.47;44.64;102392.19;4977530;28;20136;-70
2021/01/15 10:29:29;;;;;;;16.55;9.35;;;;;;;2.48;45.10;102389.47;4982949;28;20506;-71
2021/01/15 10:32:16;;;;;;;18.10;9.52;;;;;;;2.48;44.79;102392.16;4991454;28;20066;-73
2021/01/15 10:34:44;;;;;;;18.42;10.68;;;;;;;2.51;44.64;102388.50;4991888;28;20030;-72
2021/01/15 10:37:35;;;;;;;13.77;8.82;;;;;;;2.56;44.77;102387.44;4988183;28;20478;-71
2021/01/15 10:40:22;;;;;;;18.00;8.30;;;;;;;2.58;45.06;102389.19;4988565;28;20046;-72
2021/01/15 10:43:09;;;;;;;17.30;9.02;;;;;;;2.62;45.26;102390.91;4990157;28;20113;-71
2021/01/15 10:45:56;;;;;;;13.40;7.85;;;;;;;2.65;45.24;102393.50;4991709;28;20034;-71
2021/01/15 10:48:43;;;;;;;14.98;7.88;;;;;;;2.69;45.14;102390.69;4990785;28;20066;-70
2021/01/15 10:51:31;;;;;;;15.38;8.95;;;;;;;2.74;45.08;102388.72;4990675;28;20058;-71
2021/01/15 10:54:19;;;;;;;15.50;9.00;;;;;;;2.81;44.94;102397.50;4979855;28;20050;-73
2021/01/15 10:57:06;;;;;;;16.75;9.18;;;;;;;2.82;44.83;102393.88;4993092;28;20047;-72
2021/01/15 10:59:53;;;;;;;15.13;8.50;;;;;;;2.88;45.05;102399.09;4993240;28;20478;-73
2021/01/15 11:02:41;;;;;;;16.17;7.40;;;;;;;2.91;44.85;102397.22;4991180;28;20058;-72
2021/01/15 11:05:28;;;;;;;14.13;7.85;;;;;;;2.95;44.90;102395.31;4991089;28;20042;-72
2021/01/15 11:08:15;;;;;;;14.20;8.02;;;;;;;2.99;45.04;102396.09;4989139;28;20050;-73
2021/01/15 11:11:06;;;;;;;13.35;7.38;;;;;;;3.04;44.86;102403.13;4988284;28;20042;-73
2021/01/15 11:13:53;;;;;;;15.45;8.70;;;;;;;3.06;44.86;102400.38;4989475;28;20379;-72
2021/01/15 11:16:40;;;;;;;14.32;7.47;;;;;;;3.10;44.55;102407.47;4991310;28;20501;-73
2021/01/15 11:19:27;;;;;;;15.02;7.28;;;;;;;3.13;44.34;102405.53;4992566;28;20047;-72
2021/01/15 11:22:15;;;;;;;14.57;7.60;;;;;;;3.18;44.61;102402.72;4993591;28;20123;-72
2021/01/15 11:25:03;;;;;;;12.32;6.32;;;;;;;3.21;44.65;102399.88;4987871;28;20133;-73
2021/01/15 11:27:51;;;;;;;12.43;6.88;;;;;;;3.24;44.31;102397.09;4993129;28;20074;-71
2021/01/15 11:30:21;;;;;;;12.25;7.05;;;;;;;3.29;44.51;102400.53;4989588;28;20042;-71
2021/01/15 11:32:48;;;;;;;13.00;6.97;;;;;;;3.30;44.22;102392.38;4994870;28;20686;-72
2021/01/15 11:35:15;;;;;;;13.70;7.05;;;;;;;3.32;43.83;102397.75;4990699;28;20109;-73
2021/01/15 11:37:44;;;;;;;13.00;7.00;;;;;;;3.34;43.91;102398.59;4992812;28;20046;-75
2021/01/15 11:40:12;;;;;;;13.35;6.40;;;;;;;3.38;44.03;102394.84;4992784;28;20069;-73
2021/01/15 11:42:39;;;;;;;11.73;7.00;;;;;;;3.39;43.77;102393.91;4991399;28;20050;-74
2021/01/15 11:45:08;;;;;;;12.73;6.20;;;;;;;3.43;43.76;102398.31;5010070;28;20042;-74
2021/01/15 11:47:35;;;;;;;10.50;6.05;;;;;;;3.44;43.80;102394.66;5007425;28;20406;-74
2021/01/15 11:50:04;;;;;;;8.25;4.97;;;;;;;3.47;43.51;102391.84;4992845;28;20066;-74
2021/01/15 11:52:31;;;;;;;9.10;4.97;;;;;;;3.48;43.52;102393.63;5003414;28;20049;-73
2021/01/15 11:54:59;;;;;;;8.65;4.85;;;;;;;3.47;43.01;102390.94;4992650;28;20038;-72
2021/01/15 11:57:26;;;;;;;11.35;4.88;;;;;;;3.48;43.15;102387.31;4989926;28;20046;-72
2021/01/15 11:59:53;;;;;;;7.65;3.97;;;;;;;3.50;43.04;102386.34;4988539;28;20421;-71
2021/01/15 12:02:22;;;;;;;6.97;4.20;;;;;;;3.53;42.59;102388.06;4991622;28;20050;-73
2021/01/15 12:04:49;;;;;;;13.70;5.30;;;;;;;3.54;42.76;102389.81;4991326;28;20397;-72
2021/01/15 12:07:17;;;;;;;9.90;4.72;;;;;;;3.58;42.98;102386.09;4992374;28;20092;-73
2021/01/15 12:09:44;;;;;;;11.95;5.45;;;;;;;3.56;42.68;102388.84;4991040;28;20061;-73
2021/01/15 12:12:11;;;;;;;7.90;4.05;;;;;;;3.60;42.53;102378.81;4986415;28;20101;-73
2021/01/15 12:14:39;;;;;;;9.63;4.70;;;;;;;3.62;42.48;102385.97;4992800;28;20053;-73
2021/01/15 12:17:06;;;;;;;6.75;3.80;;;;;;;3.63;42.21;102376.91;4992135;28;20050;-74
2021/01/15 12:19:34;;;;;;;8.63;4.45;;;;;;;3.64;42.05;102392.22;4991192;28;20088;-73
2021/01/15 12:22:02;;;;;;;7.28;3.65;;;;;;;3.65;42.12;102385.88;4992833;28;20045;-73
2021/01/15 12:24:29;;;;;;;8.40;4.28;;;;;;;3.65;42.05;102388.56;4991684;28;20047;-72
2021/01/15 12:26:59;;;;;;;11.30;5.60;;;;;;;3.66;42.00;102384.94;4987172;28;20043;-73
2021/01/15 12:29:26;;;;;;;9.75;5.40;;;;;;;3.66;41.59;102387.66;4991130;28;20042;-72
2021/01/15 12:31:54;;;;;;;8.15;3.83;;;;;;;3.69;41.80;102389.38;4990771;28;20041;-73